Time;durP1;ratioP1;P1;durP2;ratioP2;P2;SDS_P1;SDS_P2;PMS_P1;PMS_P2;Temp;Humidity;BMP_temperature;BMP_pressure;BME280_temperature;BME280_humidity;BME280_pressure;Samples;Min_cycle;Max_cycle;Signal;HPM_P1;HPM_P2
2022/02/09 00:04:06;;;;;;;12.00;5.53;;;10.10;95.80;;;;;;5052634;28;20045;-77
2022/02/09 00:09:11;;;;;;;9.77;4.33;;;10.10;95.80;;;;;;5052663;28;20037;-77
2022/02/09 00:12:03;;;;;;;7.53;3.70;;;10.10;95.80;;;;;;5052476;28;20056;-77
2022/02/09 00:22:37;;;;;;;7.47;3.57;;;10.00;95.70;;;;;;5056110;28;20500;-77
2022/02/09 01:56:21;;;;;;;6.88;4.47;;;10.10;95.80;;;;;;5054841;28;20524;-78
2022/02/09 01:58:47;;;;;;;7.07;4.20;;;10.20;95.90;;;;;;5036615;28;20036;-77
2022/02/09 02:01:13;;;;;;;8.00;5.30;;;10.10;96.00;;;;;;5054243;28;20130;-77
2022/02/09 02:03:39;;;;;;;9.13;5.93;;;10.10;96.10;;;;;;5054170;28;20037;-77
2022/02/09 02:06:04;;;;;;;8.53;5.97;;;10.10;96.20;;;;;;5052926;28;20040;-77
2022/02/09 02:08:32;;;;;;;10.17;6.87;;;10.00;96.50;;;;;;5030792;28;20113;-78
2022/02/09 02:14:04;;;;;;;9.07;6.13;;;10.10;96.80;;;;;;5032776;28;20401;-78
2022/02/09 02:16:30;;;;;;;10.05;5.72;;;10.00;96.90;;;;;;5033972;28;20508;-77
2022/02/09 02:19:07;;;;;;;12.33;7.03;;;10.00;97.10;;;;;;5034302;28;20037;-78
2022/02/09 02:29:48;;;;;;;7.93;5.63;;;10.00;97.60;;;;;;5034218;28;20099;-77
2022/02/09 02:35:04;;;;;;;9.70;6.30;;;9.90;97.60;;;;;;5034260;28;20041;-78
2022/02/09 03:12:37;;;;;;;9.50;4.87;;;9.90;98.80;;;;;;5037433;28;20033;-78
2022/02/09 03:14:58;;;;;;;10.80;5.30;;;9.90;98.80;;;;;;5024968;28;20037;-77
2022/02/09 03:17:32;;;;;;;6.30;4.30;;;9.90;98.80;;;;;;5052916;28;20063;-77
2022/02/09 03:20:04;;;;;;;7.47;4.87;;;9.90;98.90;;;;;;5036120;28;20022;-77
2022/02/09 03:30:55;;;;;;;8.77;5.47;;;9.90;98.90;;;;;;5032806;28;20041;-78
2022/02/09 03:45:17;;;;;;;10.90;6.95;;;9.80;99.40;;;;;;5033091;28;20107;-77
2022/02/09 03:47:32;;;;;;;8.70;5.77;;;9.80;99.60;;;;;;5026588;28;20494;-77
2022/02/09 03:55:40;;;;;;;10.27;7.33;;;9.80;99.70;;;;;;5036878;28;20116;-78
2022/02/09 03:58:07;;;;;;;11.80;6.87;;;9.70;99.80;;;;;;5036861;28;20030;-77
2022/02/09 04:00:36;;;;;;;11.30;7.30;;;9.80;99.90;;;;;;5019015;28;20025;-77
2022/02/09 04:03:04;;;;;;;11.00;7.73;;;9.80;99.90;;;;;;5042546;28;20088;-77
2022/02/09 04:05:30;;;;;;;13.67;8.67;;;9.80;99.90;;;;;;5038554;28;20036;-77
2022/02/09 04:07:56;;;;;;;12.33;7.87;;;9.70;99.90;;;;;;5054735;28;20409;-78
2022/02/09 04:10:30;;;;;;;13.20;7.73;;;9.70;99.90;;;;;;5055318;28;20029;-78
2022/02/09 04:18:30;;;;;;;14.13;9.98;;;9.60;99.90;;;;;;5055037;28;20029;-77
2022/02/09 04:37:24;;;;;;;14.15;9.95;;;9.40;99.90;;;;;;5041094;28;20048;-77
2022/02/09 04:39:55;;;;;;;;;;;9.40;99.90;;;;;;5055179;28;20025;-77
2022/02/09 04:50:24;;;;;;;15.87;11.40;;;9.30;99.90;;;;;;5055911;28;20044;-77
2022/02/09 04:57:55;;;;;;;17.83;12.80;;;9.40;99.90;;;;;;5055214;28;20033;-78
2022/02/09 05:00:48;;;;;;;17.13;12.60;;;9.20;99.90;;;;;;5055417;28;20127;-78
2022/02/09 05:30:15;;;;;;;18.13;12.83;;;9.10;99.90;;;;;;5035859;28;20117;-78
2022/02/09 05:32:41;;;;;;;19.37;14.50;;;9.30;99.90;;;;;;5054886;28;20029;-78
2022/02/09 05:35:08;;;;;;;19.23;14.40;;;9.20;99.90;;;;;;5037070;28;20108;-78
2022/02/09 05:37:33;;;;;;;23.50;16.93;;;9.20;99.90;;;;;;5036734;28;20036;-77
2022/02/09 05:39:59;;;;;;;21.40;16.50;;;9.20;99.90;;;;;;5054507;28;20404;-80
2022/02/09 05:42:25;;;;;;;22.03;16.13;;;9.20;99.90;;;;;;5020376;28;20032;-78
2022/02/09 05:44:51;;;;;;;20.63;16.27;;;9.10;99.90;;;;;;5054358;28;20396;-78
2022/02/09 05:50:18;;;;;;;25.95;17.63;;;9.10;99.90;;;;;;5038897;28;20568;-78
2022/02/09 05:57:51;;;;;;;21.10;15.83;;;9.10;99.90;;;;;;5054259;28;20029;-78
2022/02/09 06:00:17;;;;;;;20.43;15.37;;;9.10;99.90;;;;;;5038589;28;20029;-78
2022/02/09 06:02:44;;;;;;;22.00;16.20;;;9.10;99.90;;;;;;5036518;28;20033;-78
2022/02/09 06:05:12;;;;;;;19.57;15.23;;;9.10;99.90;;;;;;5036354;28;20025;-78
2022/02/09 06:07:38;;;;;;;20.80;15.77;;;9.10;99.90;;;;;;5054157;28;20032;-78
2022/02/09 06:10:04;;;;;;;20.53;15.43;;;9.10;99.90;;;;;;5036145;28;20124;-77
2022/02/09 06:12:41;;;;;;;20.53;15.53;;;9.10;99.90;;;;;;5052749;28;20028;-78
2022/02/09 06:15:44;;;;;;;22.33;15.70;;;9.10;99.90;;;;;;5053718;28;20037;-78
2022/02/09 06:20:54;;;;;;;20.63;14.97;;;9.10;99.90;;;;;;5054574;28;20436;-78
2022/02/09 06:23:20;;;;;;;19.13;14.10;;;9.10;99.90;;;;;;5036070;28;20095;-78
2022/02/09 06:25:46;;;;;;;20.00;13.87;;;9.10;99.90;;;;;;5052573;28;20477;-78
2022/02/09 06:28:12;;;;;;;17.80;13.43;;;9.00;99.90;;;;;;5053666;28;20029;-78
2022/02/09 06:30:38;;;;;;;18.63;14.00;;;9.00;99.90;;;;;;5052550;28;20024;-78
2022/02/09 06:33:04;;;;;;;16.10;12.47;;;9.00;99.90;;;;;;5035928;28;20029;-78
2022/02/09 06:35:29;;;;;;;17.40;13.23;;;9.10;99.90;;;;;;5035027;28;20502;-78
2022/02/09 06:37:57;;;;;;;16.57;13.03;;;9.10;99.90;;;;;;5053244;28;20033;-77
2022/02/09 06:40:23;;;;;;;16.93;12.43;;;9.00;99.90;;;;;;5036096;28;20021;-78
2022/02/09 06:42:49;;;;;;;18.07;12.77;;;9.00;99.90;;;;;;5019096;28;20086;-77
2022/02/09 06:45:25;;;;;;;16.90;12.93;;;9.10;99.90;;;;;;5035483;28;20065;-79
2022/02/09 06:47:51;;;;;;;15.17;11.27;;;9.00;99.90;;;;;;5053448;28;20104;-77
2022/02/09 06:50:24;;;;;;;18.23;11.90;;;9.00;99.90;;;;;;5053413;28;20029;-78
2022/02/09 06:53:01;;;;;;;19.15;13.70;;;9.00;99.90;;;;;;5053421;28;20078;-78
2022/02/09 06:55:27;;;;;;;17.57;12.70;;;9.00;99.90;;;;;;5034605;28;20127;-78
2022/02/09 06:58:01;;;;;;;17.77;13.67;;;9.00;99.90;;;;;;5053263;28;20068;-78
2022/02/09 07:00:29;;;;;;;16.88;12.48;;;9.00;99.90;;;;;;5020051;28;20477;-78
2022/02/09 07:02:54;;;;;;;16.13;11.53;;;9.00;99.90;;;;;;5053100;28;20469;-78
2022/02/09 07:05:20;;;;;;;17.10;11.67;;;9.00;99.90;;;;;;5035129;28;20032;-77
2022/02/09 07:07:46;;;;;;;16.27;12.63;;;9.00;99.90;;;;;;5034410;28;20037;-78
2022/02/09 07:10:13;;;;;;;14.90;11.20;;;9.00;99.90;;;;;;5034790;28;20029;-78
2022/02/09 07:12:39;;;;;;;17.97;12.93;;;9.00;99.90;;;;;;5018535;28;20025;-78
2022/02/09 07:15:12;;;;;;;15.37;11.27;;;9.00;99.90;;;;;;5052923;28;20465;-78
2022/02/09 07:17:37;;;;;;;16.90;11.73;;;9.00;99.90;;;;;;5052866;28;20459;-77
2022/02/09 07:20:13;;;;;;;16.50;11.47;;;9.00;99.90;;;;;;5052665;28;20059;-77
2022/02/09 07:22:39;;;;;;;14.70;10.50;;;9.00;99.90;;;;;;5035190;28;20061;-77
2022/02/09 07:25:13;;;;;;;16.43;12.03;;;9.00;99.90;;;;;;5052565;28;20029;-77
2022/02/09 07:27:40;;;;;;;;;;;9.00;99.90;;;;;;5055211;28;20449;-78
2022/02/09 07:30:09;;;;;;;14.27;10.93;;;9.00;99.90;;;;;;5038846;28;19908;-77
2022/02/09 07:32:35;;;;;;;16.90;12.00;;;9.00;99.90;;;;;;5056878;28;20428;-78
2022/02/09 07:35:00;;;;;;;14.87;11.07;;;9.00;99.90;;;;;;5057074;28;20029;-78
2022/02/09 07:37:26;;;;;;;16.33;10.27;;;8.90;99.90;;;;;;5038307;28;20029;-77
2022/02/09 07:39:52;;;;;;;14.53;10.43;;;9.00;99.90;;;;;;5056326;28;20108;-77
2022/02/09 07:42:24;;;;;;;17.73;10.83;;;9.00;99.90;;;;;;5056819;28;20033;-77
2022/02/09 07:45:08;;;;;;;13.23;9.73;;;9.00;99.90;;;;;;5056507;28;20477;-78
2022/02/09 07:50:42;;;;;;;13.88;10.60;;;9.00;99.90;;;;;;5025832;28;20051;-77
2022/02/09 07:53:11;;;;;;;14.10;10.33;;;9.00;99.90;;;;;;5027200;28;20025;-77
2022/02/09 07:55:37;;;;;;;15.60;10.57;;;9.00;99.90;;;;;;5038901;28;20021;-77
2022/02/09 07:58:04;;;;;;;15.00;10.93;;;9.00;99.90;;;;;;5038196;28;20056;-77
2022/02/09 08:00:31;;;;;;;14.23;11.00;;;9.00;99.90;;;;;;5038408;28;20025;-77
2022/02/09 08:02:57;;;;;;;16.93;12.50;;;9.00;99.90;;;;;;5037916;28;20032;-77
2022/02/09 08:05:24;;;;;;;16.60;11.93;;;9.00;99.90;;;;;;5021926;28;20462;-77
2022/02/09 08:07:50;;;;;;;17.00;13.53;;;9.00;99.90;;;;;;5038026;28;20072;-78
2022/02/09 08:10:24;;;;;;;16.10;12.13;;;9.00;99.90;;;;;;5038011;28;20060;-78
2022/02/09 08:34:11;;;;;;;19.93;13.97;;;8.80;99.90;;;;;;5056322;28;20029;-77
2022/02/09 08:36:37;;;;;;;23.67;15.03;;;8.80;99.90;;;;;;5055687;28;20029;-79
2022/02/09 08:39:04;;;;;;;21.17;14.30;;;8.90;99.90;;;;;;5021246;28;20121;-79
2022/02/09 08:41:29;;;;;;;21.10;14.47;;;9.00;99.90;;;;;;5037902;28;20029;-80
2022/02/09 08:43:55;;;;;;;19.57;14.40;;;8.90;99.90;;;;;;5037843;28;20052;-79
2022/02/09 08:46:21;;;;;;;19.20;14.73;;;8.90;99.90;;;;;;5037873;28;20045;-80
2022/02/09 08:48:47;;;;;;;22.60;15.97;;;8.90;99.90;;;;;;5055341;28;20029;-80
2022/02/09 08:51:13;;;;;;;20.60;15.80;;;8.90;99.90;;;;;;5055677;28;20063;-80
2022/02/09 08:53:38;;;;;;;22.27;15.93;;;8.90;99.90;;;;;;5037882;28;20036;-79
2022/02/09 08:56:07;;;;;;;24.43;16.70;;;8.90;99.90;;;;;;5004740;28;20029;-79
2022/02/09 08:58:33;;;;;;;20.40;15.17;;;8.90;99.90;;;;;;5055566;28;20428;-79
2022/02/09 09:01:08;;;;;;;19.50;14.03;;;9.00;99.90;;;;;;5021077;28;20074;-79
2022/02/09 09:04:15;;;;;;;22.23;15.17;;;8.90;99.90;;;;;;5037214;28;20033;-81
2022/02/09 09:06:28;;;;;;;24.80;16.87;;;8.90;99.90;;;;;;5051784;28;20428;-79
2022/02/09 09:25:25;;;;;;;23.85;17.00;;;9.20;99.90;;;;;;5039880;28;20048;-80
2022/02/09 10:03:16;;;;;;;18.63;12.40;;;9.60;99.90;;;;;;5054443;28;20144;-79
2022/02/09 10:34:08;;;;;;;17.03;12.17;;;9.70;99.90;;;;;;5053892;28;20040;-79
2022/02/09 10:36:49;;;;;;;17.57;12.70;;;9.80;99.90;;;;;;5052564;28;20051;-79
2022/02/09 10:39:20;;;;;;;15.53;11.53;;;9.80;99.90;;;;;;5052452;28;20024;-79
2022/02/09 10:42:19;;;;;;;17.10;12.13;;;9.80;99.90;;;;;;5036763;28;20056;-84
2022/02/09 10:44:51;;;;;;;16.93;11.60;;;9.80;99.90;;;;;;5051961;28;20041;-79
2022/02/09 10:47:19;;;;;;;15.83;11.70;;;9.90;99.90;;;;;;5052173;28;20025;-79
2022/02/09 10:50:13;;;;;;;17.57;11.80;;;10.00;99.90;;;;;;5053237;28;20130;-80
2022/02/09 10:52:42;;;;;;;17.17;12.07;;;10.10;99.90;;;;;;5053040;28;20033;-79
2022/02/09 10:55:27;;;;;;;17.70;12.57;;;10.20;99.90;;;;;;5035071;28;20283;-79
2022/02/09 10:57:54;;;;;;;17.40;12.77;;;10.10;99.90;;;;;;5034253;28;20044;-79
2022/02/09 11:00:20;;;;;;;17.97;12.43;;;10.10;99.90;;;;;;5052742;28;20017;-80
2022/02/09 11:02:48;;;;;;;17.37;12.50;;;10.10;99.90;;;;;;5034951;28;20059;-80
2022/02/09 11:05:16;;;;;;;18.47;12.40;;;10.10;99.90;;;;;;5052798;28;20376;-79
2022/02/09 11:07:44;;;;;;;16.30;10.97;;;10.20;99.90;;;;;;5034694;28;20032;-79
2022/02/09 11:10:10;;;;;;;20.27;12.70;;;10.20;99.90;;;;;;5052280;28;20414;-79
2022/02/09 11:12:37;;;;;;;18.13;13.07;;;10.20;99.90;;;;;;5034636;28;20038;-79
2022/02/09 11:15:04;;;;;;;18.57;13.07;;;10.20;99.90;;;;;;5052634;28;20037;-79
2022/02/09 11:17:32;;;;;;;16.40;11.53;;;10.20;99.90;;;;;;5049545;28;20079;-79
2022/02/09 11:19:58;;;;;;;18.57;13.37;;;10.20;99.90;;;;;;5034415;28;20058;-79
2022/02/09 11:22:28;;;;;;;20.37;12.07;;;10.30;99.90;;;;;;5034739;28;20068;-79
2022/02/09 11:25:16;;;;;;;18.33;12.27;;;10.40;99.90;;;;;;5035594;28;20037;-79
2022/02/09 11:27:56;;;;;;;16.60;11.40;;;10.40;99.90;;;;;;5034162;28;20021;-78
2022/02/09 11:30:32;;;;;;;16.53;10.80;;;10.40;99.90;;;;;;5019040;28;20025;-79
2022/02/09 11:33:17;;;;;;;15.97;10.67;;;10.40;99.90;;;;;;5034340;28;20113;-79
2022/02/09 11:36:19;;;;;;;13.77;10.23;;;10.50;99.90;;;;;;5033073;28;20469;-79
2022/02/09 11:38:50;;;;;;;12.27;9.17;;;10.50;99.90;;;;;;5051170;28;20017;-79
2022/02/09 11:41:31;;;;;;;14.77;10.37;;;10.40;99.90;;;;;;5052242;28;20075;-79
2022/02/09 11:44:05;;;;;;;14.60;9.33;;;10.50;99.90;;;;;;5036395;28;20037;-80
2022/02/09 11:46:44;;;;;;;;;;;10.60;99.90;;;;;;5052633;28;20128;-79
2022/02/09 12:09:41;;;;;;;12.93;9.13;;;10.50;99.90;;;;;;5033280;28;20026;-80
2022/02/09 12:12:13;;;;;;;13.90;9.90;;;10.50;99.90;;;;;;5049399;28;20021;-78
2022/02/09 12:15:32;;;;;;;15.60;10.00;;;10.50;99.90;;;;;;5038049;28;20025;-79
2022/02/09 12:20:32;;;;;;;15.43;10.27;;;10.50;99.90;;;;;;5039017;28;20064;-78
2022/02/09 12:23:26;;;;;;;17.37;10.23;;;10.50;99.90;;;;;;5020375;28;20491;-79
2022/02/09 12:25:53;;;;;;;13.90;10.25;;;10.50;99.90;;;;;;5025440;28;20572;-80
2022/02/09 12:28:21;;;;;;;14.30;10.67;;;10.50;99.90;;;;;;5037226;28;20036;-79
2022/02/09 12:30:47;;;;;;;13.63;10.07;;;10.50;99.90;;;;;;5037974;28;20048;-79
2022/02/09 12:33:24;;;;;;;14.60;10.47;;;10.50;99.90;;;;;;5055999;28;20029;-79
2022/02/09 12:35:51;;;;;;;15.70;10.80;;;10.50;99.90;;;;;;5055772;28;20495;-79
2022/02/09 12:38:30;;;;;;;15.77;10.43;;;10.50;99.80;;;;;;5055809;28;20032;-79
2022/02/09 12:41:28;;;;;;;14.33;9.67;;;10.50;99.80;;;;;;5055870;28;20497;-79
2022/02/09 12:44:03;;;;;;;14.57;9.77;;;10.40;99.90;;;;;;5005773;28;20048;-79
2022/02/09 12:46:34;;;;;;;16.83;9.80;;;10.50;99.90;;;;;;5055670;28;20428;-79
2022/02/09 12:49:05;;;;;;;14.17;10.73;;;10.50;99.90;;;;;;5055706;28;20108;-79
2022/02/09 12:51:31;;;;;;;13.83;10.43;;;10.50;99.90;;;;;;5055604;28;20028;-78
2022/02/09 12:53:59;;;;;;;15.30;11.33;;;10.60;99.90;;;;;;5037943;28;20037;-80
2022/02/09 12:56:28;;;;;;;14.40;10.03;;;10.60;99.90;;;;;;5037797;28;20421;-80
2022/02/09 12:59:03;;;;;;;12.70;9.07;;;10.70;99.80;;;;;;5055567;28;20052;-81
2022/02/09 13:01:48;;;;;;;11.70;8.70;;;10.70;99.60;;;;;;5055552;28;20032;-79
2022/02/09 13:04:36;;;;;;;15.13;9.03;;;10.80;99.80;;;;;;5055385;28;20068;-79
2022/02/09 13:07:07;;;;;;;14.53;9.70;;;10.90;99.90;;;;;;5055473;28;20029;-79
2022/02/09 13:09:33;;;;;;;10.57;7.22;;;11.00;99.80;;;;;;5055280;28;20021;-80
2022/02/09 13:11:58;;;;;;;13.52;7.68;;;11.10;99.40;;;;;;5037461;28;20039;-79
2022/02/09 13:14:41;;;;;;;14.30;9.25;;;11.10;99.60;;;;;;5037401;28;20104;-79
2022/02/09 13:17:23;;;;;;;11.63;8.67;;;11.10;99.10;;;;;;5055118;28;20021;-80
2022/02/09 14:13:02;;;;;;;;;;;10.40;99.50;;;;;;5054514;28;20083;-79
2022/02/09 14:18:30;;;;;;;15.57;11.23;;;10.30;99.70;;;;;;5007261;28;20040;-79
2022/02/09 14:31:31;;;;;;;16.88;11.45;;;10.40;99.80;;;;;;5038876;28;20134;-78
2022/02/09 14:55:59;;;;;;;20.97;13.80;;;10.50;99.90;;;;;;5053527;28;20071;-78
2022/02/09 14:58:31;;;;;;;18.60;11.63;;;10.50;99.90;;;;;;5053370;28;20029;-79
2022/02/09 15:08:46;;;;;;;20.98;12.13;;;10.60;99.90;;;;;;5053137;28;20083;-79
2022/02/09 15:11:23;;;;;;;16.47;11.13;;;10.60;99.90;;;;;;5037267;28;20025;-79
2022/02/09 15:17:07;;;;;;;15.30;10.85;;;10.60;99.80;;;;;;5053237;28;20127;-79
2022/02/09 15:19:29;;;;;;;16.57;11.53;;;10.60;99.80;;;;;;5052529;28;20094;-80
2022/02/09 15:22:12;;;;;;;15.70;10.53;;;10.60;99.80;;;;;;5035057;28;20388;-79
2022/02/09 15:24:44;;;;;;;16.67;10.73;;;10.60;99.80;;;;;;5052860;28;20033;-79
2022/02/09 15:27:16;;;;;;;15.07;10.90;;;10.60;99.80;;;;;;5035226;28;20382;-79
2022/02/09 15:29:43;;;;;;;16.33;9.60;;;10.60;99.80;;;;;;5052954;28;20021;-80
2022/02/09 15:34:56;;;;;;;16.50;9.83;;;10.60;99.70;;;;;;5052881;28;20029;-79
2022/02/09 15:39:52;;;;;;;15.15;8.85;;;10.60;99.30;;;;;;5053168;28;20120;-79
2022/02/09 16:08:11;;;;;;;14.68;9.02;;;10.60;98.70;;;;;;5056372;28;20044;-79
2022/02/09 16:09:52;;;;;;;16.53;10.07;;;10.60;98.80;;;;;;5048542;28;20451;-79
2022/02/09 16:25:49;;;;;;;17.10;11.07;;;10.20;99.90;;;;;;5053884;28;20029;-79
2022/02/09 16:44:52;;;;;;;17.23;12.40;;;10.10;99.90;;;;;;5051798;28;20401;-77
2022/02/09 16:47:45;;;;;;;21.27;14.57;;;10.10;99.90;;;;;;5050970;28;20034;-77
2022/02/09 16:50:15;;;;;;;17.93;12.90;;;10.00;99.90;;;;;;5051344;28;20509;-77
2022/02/09 16:52:50;;;;;;;19.70;13.63;;;10.00;99.90;;;;;;5047720;28;20021;-79
2022/02/09 17:19:26;;;;;;;25.65;16.33;;;9.80;99.90;;;;;;5041513;28;20091;-80
2022/02/09 17:21:51;;;;;;;22.23;15.43;;;9.80;99.90;;;;;;5033267;28;20037;-79
2022/02/09 17:24:17;;;;;;;26.67;16.83;;;9.80;99.90;;;;;;5054764;28;20481;-80
2022/02/09 17:26:44;;;;;;;25.60;16.53;;;9.80;99.90;;;;;;5052721;28;20440;-79
2022/02/09 17:29:16;;;;;;;29.37;18.00;;;9.80;99.90;;;;;;5054368;28;20473;-78
2022/02/09 17:55:38;;;;;;;20.85;14.73;;;9.70;99.90;;;;;;5035029;28;20048;-79
2022/02/09 17:58:13;;;;;;;23.43;16.47;;;9.70;99.90;;;;;;5037360;28;20115;-79
2022/02/09 18:00:39;;;;;;;23.37;16.10;;;9.60;99.90;;;;;;5051683;28;20025;-79
2022/02/09 18:03:04;;;;;;;28.63;17.60;;;9.70;99.90;;;;;;5053600;28;20151;-79
2022/02/09 18:08:04;;;;;;;26.07;17.10;;;9.80;99.90;;;;;;5053243;28;20032;-79
2022/02/09 18:13:38;;;;;;;23.77;16.17;;;9.80;99.90;;;;;;5052299;28;20119;-79
2022/02/09 18:27:42;;;;;;;23.10;15.75;;;9.70;99.90;;;;;;5053111;28;20039;-78
2022/02/09 18:29:56;;;;;;;25.23;17.07;;;9.80;99.90;;;;;;5053632;28;20120;-79
2022/02/09 18:42:57;;;;;;;27.07;17.50;;;9.80;99.90;;;;;;5053825;28;20021;-78
2022/02/09 18:45:46;;;;;;;21.77;15.00;;;9.80;99.90;;;;;;5051951;28;20071;-79
2022/02/09 19:04:41;;;;;;;26.73;16.43;;;9.70;99.90;;;;;;4991946;28;20479;-78
2022/02/09 19:18:33;;;;;;;23.37;16.63;;;9.80;99.90;;;;;;5039589;28;20044;-79
2022/02/09 19:29:37;;;;;;;28.23;18.60;;;9.80;99.90;;;;;;5030437;28;20063;-79
2022/02/09 19:32:08;;;;;;;25.43;16.70;;;9.80;99.90;;;;;;5044562;28;20599;-79
2022/02/09 19:48:09;;;;;;;29.07;19.10;;;9.80;99.90;;;;;;5031632;28;20029;-79
2022/02/09 19:55:38;;;;;;;25.93;16.93;;;9.80;99.90;;;;;;5052310;28;20036;-79
2022/02/09 19:58:05;;;;;;;25.00;15.77;;;9.70;99.90;;;;;;5052059;28;20048;-79
2022/02/09 20:00:34;;;;;;;25.93;16.30;;;9.80;99.90;;;;;;5053119;28;20045;-78
2022/02/09 20:03:00;;;;;;;27.83;16.13;;;9.70;99.90;;;;;;5051524;28;20104;-79
2022/02/09 20:05:27;;;;;;;25.50;15.50;;;9.70;99.90;;;;;;5051098;28;20569;-78
2022/02/09 20:07:53;;;;;;;26.57;15.30;;;9.70;99.90;;;;;;5051416;28;20104;-79
2022/02/09 20:10:19;;;;;;;25.17;15.43;;;9.70;99.90;;;;;;5052708;28;20025;-79
2022/02/09 20:12:45;;;;;;;34.23;16.77;;;9.70;99.90;;;;;;5052645;28;20021;-79
2022/02/09 20:15:12;;;;;;;27.80;16.83;;;9.80;99.90;;;;;;5051624;28;20384;-80
2022/02/09 20:17:41;;;;;;;22.83;15.13;;;9.70;99.90;;;;;;5052582;28;20021;-79
2022/02/09 20:20:10;;;;;;;23.10;15.07;;;9.70;99.90;;;;;;5051370;28;20036;-80
2022/02/09 20:22:36;;;;;;;23.93;15.10;;;9.70;99.90;;;;;;5036093;28;20032;-79
2022/02/09 20:25:03;;;;;;;23.33;14.00;;;9.60;99.90;;;;;;5052371;28;20025;-80
2022/02/09 20:27:29;;;;;;;21.33;14.30;;;9.60;99.90;;;;;;5034711;28;20114;-80
2022/02/09 20:29:56;;;;;;;23.00;13.27;;;9.70;99.90;;;;;;5052561;28;20068;-79
2022/02/09 20:32:28;;;;;;;24.03;14.07;;;9.70;99.90;;;;;;5052404;28;20021;-79
2022/02/09 20:34:57;;;;;;;27.90;13.37;;;9.70;99.90;;;;;;5036220;28;20029;-79
2022/02/09 20:37:25;;;;;;;21.57;13.27;;;9.70;99.90;;;;;;5037743;28;20025;-79
2022/02/09 20:40:00;;;;;;;26.73;12.50;;;9.70;99.90;;;;;;5037853;28;20055;-79
2022/02/09 20:42:27;;;;;;;18.53;12.03;;;9.60;99.90;;;;;;5055934;28;20029;-79
2022/02/09 20:45:38;;;;;;;22.30;11.67;;;9.70;99.90;;;;;;5037515;28;20112;-79
2022/02/09 20:47:45;;;;;;;20.23;11.60;;;9.70;99.90;;;;;;5047266;28;20040;-78
2022/02/09 20:50:11;;;;;;;20.10;11.60;;;9.60;99.90;;;;;;5055737;28;20477;-78
2022/02/09 20:52:37;;;;;;;17.43;10.83;;;9.70;99.90;;;;;;5021210;28;20049;-79
2022/02/09 20:55:03;;;;;;;17.63;10.27;;;9.70;99.90;;;;;;5037906;28;20500;-79
2022/02/09 20:57:30;;;;;;;17.93;11.53;;;9.70;99.90;;;;;;5019181;28;20029;-79
2022/02/09 21:00:05;;;;;;;21.97;11.87;;;9.70;99.90;;;;;;5043973;28;20432;-78
2022/02/09 21:02:46;;;;;;;18.37;10.90;;;9.70;99.90;;;;;;5046306;28;20056;-79
2022/02/09 21:08:03;;;;;;;21.23;12.90;;;9.80;99.90;;;;;;5041452;28;20061;-79
2022/02/09 21:10:49;;;;;;;25.07;13.57;;;9.70;99.90;;;;;;5022231;28;20064;-79
2022/02/09 21:46:05;;;;;;;35.40;22.20;;;9.80;99.90;;;;;;5051576;28;20130;-79
2022/02/09 21:56:15;;;;;;;39.50;25.70;;;9.70;99.90;;;;;;5053074;28;20583;-79
2022/02/09 22:06:37;;;;;;;37.65;23.35;;;9.80;99.90;;;;;;5038150;28;20028;-79
2022/02/09 22:48:21;;;;;;;34.03;22.43;;;9.70;99.90;;;;;;5053515;28;19919;-74
2022/02/09 22:56:04;;;;;;;36.45;23.25;;;9.70;99.90;;;;;;5053671;28;20103;-75
2022/02/09 22:58:29;;;;;;;37.73;24.53;;;9.70;99.90;;;;;;5035123;28;20021;-74
2022/02/09 23:01:18;;;;;;;45.53;26.90;;;9.70;99.90;;;;;;5053437;28;20104;-74
2022/02/09 23:14:22;;;;;;;44.20;26.17;;;9.70;99.90;;;;;;5053267;28;20037;-74
2022/02/09 23:17:16;;;;;;;41.80;26.63;;;9.70;99.90;;;;;;5053267;28;20037;-75
2022/02/09 23:29:01;;;;;;;38.97;24.30;;;9.60;99.90;;;;;;5053339;28;19966;-75
